sensor_id;sensor_type;location;lat;lon;timestamp;P1;durP1;ratioP1;P2;durP2;ratioP2
67164;SDS011;54093;50.014;19.984;2022-11-20T00:07:43;30.38;;;15.07;;
67164;SDS011;54093;50.014;19.984;2022-11-20T00:17:04;23.17;;;14.30;;
67164;SDS011;54093;50.014;19.984;2022-11-20T00:26:26;25.27;;;13.82;;
67164;SDS011;54093;50.014;19.984;2022-11-20T00:35:47;29.40;;;14.90;;
67164;SDS011;54093;50.014;19.984;2022-11-20T00:45:08;26.05;;;14.63;;
67164;SDS011;54093;50.014;19.984;2022-11-20T00:54:29;27.52;;;14.95;;
67164;SDS011;54093;50.014;19.984;2022-11-20T01:03:50;39.13;;;18.58;;
67164;SDS011;54093;50.014;19.984;2022-11-20T01:13:13;24.90;;;13.98;;
67164;SDS011;54093;50.014;19.984;2022-11-20T01:22:52;29.70;;;15.48;;
67164;SDS011;54093;50.014;19.984;2022-11-20T01:32:13;29.08;;;13.32;;
67164;SDS011;54093;50.014;19.984;2022-11-20T01:41:34;16.33;;;11.43;;
67164;SDS011;54093;50.014;19.984;2022-11-20T01:51:17;33.80;;;15.13;;
67164;SDS011;54093;50.014;19.984;2022-11-20T02:00:44;20.83;;;14.52;;
67164;SDS011;54093;50.014;19.984;2022-11-20T02:10:05;23.65;;;14.05;;
67164;SDS011;54093;50.014;19.984;2022-11-20T02:19:27;35.15;;;15.35;;
67164;SDS011;54093;50.014;19.984;2022-11-20T02:28:50;35.22;;;14.98;;
67164;SDS011;54093;50.014;19.984;2022-11-20T02:38:11;37.05;;;16.20;;
67164;SDS011;54093;50.014;19.984;2022-11-20T02:47:33;24.23;;;12.30;;
67164;SDS011;54093;50.014;19.984;2022-11-20T02:56:54;16.73;;;11.15;;
67164;SDS011;54093;50.014;19.984;2022-11-20T03:06:15;28.25;;;15.05;;
67164;SDS011;54093;50.014;19.984;2022-11-20T03:15:37;25.67;;;13.18;;
67164;SDS011;54093;50.014;19.984;2022-11-20T03:24:57;39.55;;;17.48;;
67164;SDS011;54093;50.014;19.984;2022-11-20T03:34:18;36.88;;;16.77;;
67164;SDS011;54093;50.014;19.984;2022-11-20T03:43:39;28.48;;;15.57;;
67164;SDS011;54093;50.014;19.984;2022-11-20T03:53:00;28.67;;;14.80;;
67164;SDS011;54093;50.014;19.984;2022-11-20T04:02:21;32.60;;;14.27;;
67164;SDS011;54093;50.014;19.984;2022-11-20T04:11:42;18.05;;;12.45;;
67164;SDS011;54093;50.014;19.984;2022-11-20T04:21:03;30.90;;;15.00;;
67164;SDS011;54093;50.014;19.984;2022-11-20T04:30:25;25.77;;;14.35;;
67164;SDS011;54093;50.014;19.984;2022-11-20T04:39:46;22.30;;;13.45;;
67164;SDS011;54093;50.014;19.984;2022-11-20T04:49:07;37.47;;;16.30;;
67164;SDS011;54093;50.014;19.984;2022-11-20T04:58:28;29.17;;;13.27;;
67164;SDS011;54093;50.014;19.984;2022-11-20T05:07:49;15.55;;;11.32;;
67164;SDS011;54093;50.014;19.984;2022-11-20T05:17:10;21.63;;;12.30;;
67164;SDS011;54093;50.014;19.984;2022-11-20T05:26:32;23.35;;;11.63;;
67164;SDS011;54093;50.014;19.984;2022-11-20T05:35:53;14.43;;;9.57;;
67164;SDS011;54093;50.014;19.984;2022-11-20T05:45:18;34.63;;;16.35;;
67164;SDS011;54093;50.014;19.984;2022-11-20T05:54:39;20.70;;;12.32;;
67164;SDS011;54093;50.014;19.984;2022-11-20T06:04:00;24.48;;;13.73;;
67164;SDS011;54093;50.014;19.984;2022-11-20T06:13:20;32.85;;;16.52;;
67164;SDS011;54093;50.014;19.984;2022-11-20T06:22:41;18.95;;;12.75;;
67164;SDS011;54093;50.014;19.984;2022-11-20T06:32:02;57.60;;;21.80;;
67164;SDS011;54093;50.014;19.984;2022-11-20T06:41:23;55.25;;;20.15;;
67164;SDS011;54093;50.014;19.984;2022-11-20T06:50:45;55.72;;;20.75;;
67164;SDS011;54093;50.014;19.984;2022-11-20T07:00:06;53.95;;;21.60;;
67164;SDS011;54093;50.014;19.984;2022-11-20T07:09:27;60.88;;;21.58;;
67164;SDS011;54093;50.014;19.984;2022-11-20T07:18:48;39.50;;;19.38;;
67164;SDS011;54093;50.014;19.984;2022-11-20T07:28:09;45.63;;;20.75;;
67164;SDS011;54093;50.014;19.984;2022-11-20T07:37:33;51.33;;;19.58;;
67164;SDS011;54093;50.014;19.984;2022-11-20T07:46:54;39.53;;;18.23;;
67164;SDS011;54093;50.014;19.984;2022-11-20T07:56:15;44.78;;;19.25;;
67164;SDS011;54093;50.014;19.984;2022-11-20T08:05:36;55.95;;;24.88;;
67164;SDS011;54093;50.014;19.984;2022-11-20T08:14:57;45.83;;;18.83;;
67164;SDS011;54093;50.014;19.984;2022-11-20T08:24:19;54.70;;;22.90;;
67164;SDS011;54093;50.014;19.984;2022-11-20T08:33:40;45.88;;;20.50;;
67164;SDS011;54093;50.014;19.984;2022-11-20T08:43:00;34.65;;;17.88;;
67164;SDS011;54093;50.014;19.984;2022-11-20T08:52:21;41.75;;;19.80;;
67164;SDS011;54093;50.014;19.984;2022-11-20T09:01:42;54.58;;;22.70;;
67164;SDS011;54093;50.014;19.984;2022-11-20T09:11:03;45.47;;;20.42;;
67164;SDS011;54093;50.014;19.984;2022-11-20T09:20:25;54.40;;;23.58;;
67164;SDS011;54093;50.014;19.984;2022-11-20T09:29:47;61.05;;;23.85;;
67164;SDS011;54093;50.014;19.984;2022-11-20T09:39:07;57.20;;;21.55;;
67164;SDS011;54093;50.014;19.984;2022-11-20T09:59:04;64.93;;;25.15;;
67164;SDS011;54093;50.014;19.984;2022-11-20T10:08:20;52.50;;;21.60;;
67164;SDS011;54093;50.014;19.984;2022-11-20T10:37:31;50.05;;;23.85;;
67164;SDS011;54093;50.014;19.984;2022-11-20T10:46:54;42.95;;;21.00;;
67164;SDS011;54093;50.014;19.984;2022-11-20T11:05:49;47.10;;;22.42;;
67164;SDS011;54093;50.014;19.984;2022-11-20T11:15:25;53.22;;;21.98;;
67164;SDS011;54093;50.014;19.984;2022-11-20T11:24:52;46.85;;;20.45;;
67164;SDS011;54093;50.014;19.984;2022-11-20T11:34:14;60.42;;;24.92;;
67164;SDS011;54093;50.014;19.984;2022-11-20T11:43:36;55.45;;;23.83;;
67164;SDS011;54093;50.014;19.984;2022-11-20T11:53:30;66.75;;;26.95;;
67164;SDS011;54093;50.014;19.984;2022-11-20T12:03:07;67.82;;;28.33;;
67164;SDS011;54093;50.014;19.984;2022-11-20T12:12:39;69.50;;;25.38;;
67164;SDS011;54093;50.014;19.984;2022-11-20T13:11:19;54.30;;;25.17;;
67164;SDS011;54093;50.014;19.984;2022-11-20T13:20:46;55.78;;;25.13;;
67164;SDS011;54093;50.014;19.984;2022-11-20T13:39:35;63.20;;;27.40;;
67164;SDS011;54093;50.014;19.984;2022-11-20T13:48:57;54.75;;;24.27;;
67164;SDS011;54093;50.014;19.984;2022-11-20T13:58:24;54.05;;;22.67;;
67164;SDS011;54093;50.014;19.984;2022-11-20T14:08:05;60.60;;;27.48;;
67164;SDS011;54093;50.014;19.984;2022-11-20T14:17:33;65.65;;;28.20;;
67164;SDS011;54093;50.014;19.984;2022-11-20T14:26:55;59.92;;;24.13;;
67164;SDS011;54093;50.014;19.984;2022-11-20T14:36:20;79.72;;;32.22;;
67164;SDS011;54093;50.014;19.984;2022-11-20T14:45:44;45.75;;;22.40;;
67164;SDS011;54093;50.014;19.984;2022-11-20T14:55:13;53.05;;;24.33;;
67164;SDS011;54093;50.014;19.984;2022-11-20T15:04:44;44.83;;;22.48;;
67164;SDS011;54093;50.014;19.984;2022-11-20T15:14:08;70.85;;;27.77;;
67164;SDS011;54093;50.014;19.984;2022-11-20T15:23:30;69.28;;;28.45;;
67164;SDS011;54093;50.014;19.984;2022-11-20T15:32:50;80.40;;;28.30;;
67164;SDS011;54093;50.014;19.984;2022-11-20T15:42:11;76.38;;;31.13;;
67164;SDS011;54093;50.014;19.984;2022-11-20T16:00:54;51.15;;;26.63;;
67164;SDS011;54093;50.014;19.984;2022-11-20T16:10:15;59.97;;;27.23;;
67164;SDS011;54093;50.014;19.984;2022-11-20T16:19:36;71.93;;;28.30;;
67164;SDS011;54093;50.014;19.984;2022-11-20T16:29:00;66.80;;;27.98;;
67164;SDS011;54093;50.014;19.984;2022-11-20T16:38:23;60.95;;;24.27;;
67164;SDS011;54093;50.014;19.984;2022-11-20T16:47:44;64.43;;;29.73;;
67164;SDS011;54093;50.014;19.984;2022-11-20T16:57:05;53.58;;;25.98;;
67164;SDS011;54093;50.014;19.984;2022-11-20T17:06:27;84.25;;;35.50;;
67164;SDS011;54093;50.014;19.984;2022-11-20T17:15:50;75.25;;;35.65;;
67164;SDS011;54093;50.014;19.984;2022-11-20T17:25:11;61.30;;;28.48;;
67164;SDS011;54093;50.014;19.984;2022-11-20T17:34:32;56.45;;;25.60;;
67164;SDS011;54093;50.014;19.984;2022-11-20T17:43:53;90.70;;;35.10;;
67164;SDS011;54093;50.014;19.984;2022-11-20T17:53:18;95.00;;;37.17;;
67164;SDS011;54093;50.014;19.984;2022-11-20T18:02:40;83.38;;;36.40;;
67164;SDS011;54093;50.014;19.984;2022-11-20T18:12:01;66.47;;;29.33;;
67164;SDS011;54093;50.014;19.984;2022-11-20T18:21:22;67.55;;;29.30;;
67164;SDS011;54093;50.014;19.984;2022-11-20T18:30:44;83.78;;;33.65;;
67164;SDS011;54093;50.014;19.984;2022-11-20T18:40:05;76.28;;;29.67;;
67164;SDS011;54093;50.014;19.984;2022-11-20T18:49:27;55.70;;;25.38;;
67164;SDS011;54093;50.014;19.984;2022-11-20T18:58:48;64.10;;;28.42;;
67164;SDS011;54093;50.014;19.984;2022-11-20T19:08:08;56.65;;;24.95;;
67164;SDS011;54093;50.014;19.984;2022-11-20T19:17:29;79.05;;;31.45;;
67164;SDS011;54093;50.014;19.984;2022-11-20T19:26:52;59.58;;;27.08;;
67164;SDS011;54093;50.014;19.984;2022-11-20T19:45:37;85.88;;;32.80;;
67164;SDS011;54093;50.014;19.984;2022-11-20T19:54:58;67.75;;;29.55;;
67164;SDS011;54093;50.014;19.984;2022-11-20T20:04:18;43.30;;;23.25;;
67164;SDS011;54093;50.014;19.984;2022-11-20T20:13:39;68.70;;;29.77;;
67164;SDS011;54093;50.014;19.984;2022-11-20T20:23:01;57.80;;;26.58;;
67164;SDS011;54093;50.014;19.984;2022-11-20T20:32:26;59.70;;;28.25;;
67164;SDS011;54093;50.014;19.984;2022-11-20T20:41:47;73.03;;;31.55;;
67164;SDS011;54093;50.014;19.984;2022-11-20T20:51:08;67.13;;;30.92;;
67164;SDS011;54093;50.014;19.984;2022-11-20T21:00:29;79.38;;;33.80;;
67164;SDS011;54093;50.014;19.984;2022-11-20T21:09:50;77.32;;;31.67;;
67164;SDS011;54093;50.014;19.984;2022-11-20T21:19:11;75.13;;;30.35;;
67164;SDS011;54093;50.014;19.984;2022-11-20T21:28:32;57.92;;;28.77;;
67164;SDS011;54093;50.014;19.984;2022-11-20T21:37:54;70.88;;;28.00;;
67164;SDS011;54093;50.014;19.984;2022-11-20T21:47:15;87.72;;;35.55;;
67164;SDS011;54093;50.014;19.984;2022-11-20T21:56:36;78.72;;;29.67;;
67164;SDS011;54093;50.014;19.984;2022-11-20T22:05:58;51.33;;;24.92;;
67164;SDS011;54093;50.014;19.984;2022-11-20T22:15:18;52.60;;;24.45;;
67164;SDS011;54093;50.014;19.984;2022-11-20T22:24:39;60.40;;;28.00;;
67164;SDS011;54093;50.014;19.984;2022-11-20T22:34:00;60.17;;;25.75;;
67164;SDS011;54093;50.014;19.984;2022-11-20T22:43:21;80.55;;;36.35;;
67164;SDS011;54093;50.014;19.984;2022-11-20T22:52:42;77.63;;;32.97;;
67164;SDS011;54093;50.014;19.984;2022-11-20T23:02:03;72.60;;;31.90;;
67164;SDS011;54093;50.014;19.984;2022-11-20T23:11:25;103.35;;;41.40;;
67164;SDS011;54093;50.014;19.984;2022-11-20T23:20:47;65.30;;;28.95;;
67164;SDS011;54093;50.014;19.984;2022-11-20T23:30:08;93.97;;;39.15;;
67164;SDS011;54093;50.014;19.984;2022-11-20T23:39:29;62.95;;;28.98;;
67164;SDS011;54093;50.014;19.984;2022-11-20T23:48:50;84.78;;;32.72;;
67164;SDS011;54093;50.014;19.984;2022-11-20T23:58:11;80.75;;;33.50;;
